Time;durP1;ratioP1;P1;durP2;ratioP2;P2;SDS_P1;SDS_P2;PMS_P1;PMS_P2;Temp;Humidity;BMP_temperature;BMP_pressure;BME280_temperature;BME280_humidity;BME280_pressure;Samples;Min_cycle;Max_cycle;Signal;HPM_P1;HPM_P2
2023/05/26 00:01:04;;;;;;;;;;;;;;;22.21;47.73;100861.64;103062;1295;61390;-83
2023/05/26 00:03:29;;;;;;;;;;;;;;;22.20;47.71;100861.49;103325;1292;61710;-84
2023/05/26 00:05:55;;;;;;;;;;;;;;;22.20;47.76;100870.27;103107;1292;61401;-84
2023/05/26 00:08:22;;;;;;;;;;;;;;;22.20;47.80;100872.80;103258;1292;61378;-83
2023/05/26 00:10:48;;;;;;;;;;;;;;;22.20;47.86;100872.99;103502;1291;72392;-83
2023/05/26 00:13:13;;;;;;;;;;;;;;;22.20;47.84;100871.17;103502;1289;62526;-83
2023/05/26 00:15:39;;;;;;;;;;;;;;;22.20;47.83;100871.37;103332;1292;61400;-84
2023/05/26 00:18:05;;;;;;;;;;;;;;;22.20;47.77;100870.46;103329;1290;61444;-83
2023/05/26 00:20:31;;;;;;;;;;;;;;;22.19;47.98;100869.41;103250;1289;62104;-84
2023/05/26 00:22:57;;;;;;;;;;;;;;;22.20;47.90;100870.49;103315;1289;61418;-83
2023/05/26 00:25:22;;;;;;;;;;;;;;;22.20;47.92;100873.70;103300;1293;62420;-84
2023/05/26 00:27:48;;;;;;;;;;;;;;;22.19;47.81;100875.86;103235;1293;61352;-84
2023/05/26 00:30:14;;;;;;;;;;;;;;;22.20;47.93;100878.39;103234;1289;62283;-83
2023/05/26 00:32:40;;;;;;;;;;;;;;;22.20;47.97;100879.09;103369;1289;61448;-84
2023/05/26 00:35:06;;;;;;;;;;;;;;;22.19;47.95;100877.89;103200;1295;61410;-84
2023/05/26 00:37:32;;;;;;;;;;;;;;;22.19;47.90;100880.05;102966;1289;61419;-83
2023/05/26 00:39:58;;;;;;;;;;;;;;;22.19;47.99;100884.69;103243;1292;62671;-84
2023/05/26 00:42:23;;;;;;;;;;;;;;;22.19;47.90;100881.66;103307;1292;63044;-84
2023/05/26 00:44:52;;;;;;;;;;;;;;;22.19;47.94;100872.52;103464;1288;73424;-83
2023/05/26 00:47:19;;;;;;;;;;;;;;;22.18;47.95;100870.59;103275;1294;74467;-83
2023/05/26 00:49:45;;;;;;;;;;;;;;;22.18;47.88;100872.19;103253;1292;62187;-83
2023/05/26 00:52:10;;;;;;;;;;;;;;;22.18;48.03;100865.91;103058;1292;62342;-83
2023/05/26 00:54:37;;;;;;;;;;;;;;;22.18;47.93;100860.40;103261;1294;61379;-84
2023/05/26 00:57:02;;;;;;;;;;;;;;;22.18;48.01;100854.48;103193;1289;61339;-84
2023/05/26 00:59:28;;;;;;;;;;;;;;;22.18;47.99;100863.98;103052;1289;61396;-83
2023/05/26 01:01:53;;;;;;;;;;;;;;;22.18;47.99;100858.09;103296;1294;61561;-84
2023/05/26 01:04:20;;;;;;;;;;;;;;;22.17;48.09;100855.78;103267;1289;61344;-82
2023/05/26 01:06:45;;;;;;;;;;;;;;;22.17;47.98;100856.84;103279;1294;72278;-83
2023/05/26 01:09:11;;;;;;;;;;;;;;;22.17;48.01;100856.84;103262;1293;61409;-84
2023/05/26 01:11:40;;;;;;;;;;;;;;;22.18;47.91;100851.80;103275;1289;62364;-83
2023/05/26 01:14:09;;;;;;;;;;;;;;;22.17;48.00;100852.92;103066;1289;61487;-83
2023/05/26 01:16:36;;;;;;;;;;;;;;;22.17;47.92;100851.16;103212;1289;71533;-83
2023/05/26 01:19:07;;;;;;;;;;;;;;;22.17;47.97;100852.21;103013;1293;75422;-84
2023/05/26 01:21:34;;;;;;;;;;;;;;;22.17;47.96;100852.05;103158;1297;61397;-83
2023/05/26 01:24:00;;;;;;;;;;;;;;;22.17;48.05;100851.65;102853;1295;61438;-83
2023/05/26 01:26:32;;;;;;;;;;;;;;;22.17;48.02;100852.20;102871;1292;61854;-84
2023/05/26 01:28:58;;;;;;;;;;;;;;;22.17;48.00;100853.64;102918;1292;75282;-84
2023/05/26 01:31:24;;;;;;;;;;;;;;;22.17;48.04;100854.02;102954;1297;61407;-83
2023/05/26 01:33:50;;;;;;;;;;;;;;;22.17;47.94;100854.00;103089;1295;62315;-83
2023/05/26 01:36:15;;;;;;;;;;;;;;;22.16;48.05;100844.36;103049;1297;61493;-83
2023/05/26 01:38:41;;;;;;;;;;;;;;;22.17;47.98;100843.09;103018;1292;61700;-83
2023/05/26 01:41:33;;;;;;;;;;;;;;;22.16;48.00;100837.20;102904;1292;61336;-83
2023/05/26 01:44:22;;;;;;;;;;;;;;;22.16;48.08;100837.20;102842;1297;62529;-83
2023/05/26 01:46:48;;;;;;;;;;;;;;;22.16;48.12;100836.33;102959;1292;61768;-84
2023/05/26 01:49:15;;;;;;;;;;;;;;;22.17;48.07;100833.24;102921;1292;72379;-83
2023/05/26 01:51:42;;;;;;;;;;;;;;;22.16;48.05;100832.56;103356;1292;61349;-83
2023/05/26 01:54:10;;;;;;;;;;;;;;;22.16;48.01;100829.91;103094;1290;61343;-84
2023/05/26 01:56:36;;;;;;;;;;;;;;;22.16;48.06;100825.79;103242;1290;61699;-84
2023/05/26 01:59:02;;;;;;;;;;;;;;;22.16;48.13;100825.97;103493;1291;61301;-84
2023/05/26 02:01:28;;;;;;;;;;;;;;;22.16;48.10;100829.38;103283;1289;61475;-83
2023/05/26 02:03:54;;;;;;;;;;;;;;;22.16;48.03;100829.01;103291;1288;62545;-84
2023/05/26 02:06:20;;;;;;;;;;;;;;;22.15;48.07;100833.34;103146;1289;62112;-84
2023/05/26 02:08:46;;;;;;;;;;;;;;;22.15;48.08;100835.15;103316;1290;62723;-84
2023/05/26 02:11:11;;;;;;;;;;;;;;;22.15;48.07;100833.91;103351;1294;61470;-84
2023/05/26 02:14:00;;;;;;;;;;;;;;;22.15;48.08;100838.04;103341;1290;61448;-84
2023/05/26 02:16:26;;;;;;;;;;;;;;;22.15;48.09;100832.45;102718;1300;61887;-83
2023/05/26 02:18:52;;;;;;;;;;;;;;;22.15;48.09;100830.89;102630;1300;61615;-84
2023/05/26 02:21:18;;;;;;;;;;;;;;;22.14;48.00;100836.11;102506;1295;61404;-83
2023/05/26 02:23:43;;;;;;;;;;;;;;;22.15;47.99;100833.05;102569;1295;61485;-84
2023/05/26 02:26:09;;;;;;;;;;;;;;;22.14;48.00;100833.40;102655;1300;61593;-84
2023/05/26 02:28:34;;;;;;;;;;;;;;;22.15;48.08;100832.67;102606;1294;61480;-83
2023/05/26 02:31:00;;;;;;;;;;;;;;;22.14;48.01;100828.92;102558;1302;62112;-83
2023/05/26 02:33:26;;;;;;;;;;;;;;;22.15;48.04;100833.94;102615;1301;61744;-84
2023/05/26 02:35:52;;;;;;;;;;;;;;;22.14;48.04;100833.96;102609;1295;61491;-84
2023/05/26 02:38:17;;;;;;;;;;;;;;;22.14;48.12;100832.58;102741;1299;61369;-83
2023/05/26 02:40:43;;;;;;;;;;;;;;;22.14;48.13;100839.02;102747;1295;61568;-84
2023/05/26 02:43:09;;;;;;;;;;;;;;;22.14;48.11;100838.85;102705;1295;62426;-84
2023/05/26 02:45:35;;;;;;;;;;;;;;;22.13;48.02;100841.20;102645;1300;72545;-83
2023/05/26 02:48:00;;;;;;;;;;;;;;;22.13;48.03;100841.20;102776;1300;61995;-84
2023/05/26 02:50:26;;;;;;;;;;;;;;;22.14;48.11;100842.97;102583;1295;61526;-83
2023/05/26 02:52:52;;;;;;;;;;;;;;;22.13;47.97;100842.11;102648;1295;62946;-83
2023/05/26 02:55:18;;;;;;;;;;;;;;;22.13;48.02;100842.82;103090;1294;61434;-83
2023/05/26 02:57:43;;;;;;;;;;;;;;;22.14;48.02;100846.76;103262;1289;72508;-82
2023/05/26 03:00:12;;;;;;;;;;;;;;;22.13;48.08;100850.56;103234;1293;61458;-83
2023/05/26 03:02:38;;;;;;;;;;;;;;;22.13;48.04;100850.18;103463;1290;61804;-84
2023/05/26 03:05:06;;;;;;;;;;;;;;;22.13;48.12;100851.79;103444;1289;61398;-84
2023/05/26 03:07:32;;;;;;;;;;;;;;;22.13;48.07;100855.01;103054;1287;72557;-84
2023/05/26 03:09:57;;;;;;;;;;;;;;;22.13;48.06;100855.20;103369;1290;61319;-84
2023/05/26 03:12:23;;;;;;;;;;;;;;;22.13;48.01;100857.36;103246;1292;62527;-84
2023/05/26 03:14:48;;;;;;;;;;;;;;;22.13;48.14;100856.63;103492;1289;61418;-83
2023/05/26 03:17:16;;;;;;;;;;;;;;;22.13;48.02;100853.77;103517;1291;61288;-84
2023/05/26 03:19:42;;;;;;;;;;;;;;;22.13;48.10;100851.62;103266;1290;73888;-83
2023/05/26 03:22:07;;;;;;;;;;;;;;;22.13;48.04;100855.02;103326;1289;61401;-83
2023/05/26 03:24:33;;;;;;;;;;;;;;;22.13;48.09;100853.96;103299;1290;61425;-83
2023/05/26 03:26:58;;;;;;;;;;;;;;;22.13;48.09;100855.92;103309;1289;61492;-83
2023/05/26 03:29:24;;;;;;;;;;;;;;;22.13;48.06;100859.48;103552;1288;61314;-84
2023/05/26 03:31:49;;;;;;;;;;;;;;;22.14;48.08;100856.23;103273;1290;72514;-84
2023/05/26 03:34:15;;;;;;;;;;;;;;;22.13;48.01;100849.81;103068;1290;61769;-84
2023/05/26 03:36:45;;;;;;;;;;;;;;;22.14;48.07;100854.23;103325;1294;61384;-83
2023/05/26 03:39:14;;;;;;;;;;;;;;;22.14;48.16;100853.15;103281;1290;61327;-84
2023/05/26 03:41:39;;;;;;;;;;;;;;;22.14;48.17;100857.65;103265;1293;73430;-83
2023/05/26 03:44:05;;;;;;;;;;;;;;;22.14;48.12;100859.58;103500;1289;62682;-84
2023/05/26 03:46:30;;;;;;;;;;;;;;;22.14;48.05;100862.99;103322;1290;61410;-83
2023/05/26 03:48:56;;;;;;;;;;;;;;;22.14;48.11;100864.41;103329;1294;61409;-83
2023/05/26 03:51:22;;;;;;;;;;;;;;;22.15;48.12;100866.73;103246;1294;61307;-82
2023/05/26 03:53:47;;;;;;;;;;;;;;;22.15;48.08;100870.67;103291;1288;61467;-84
2023/05/26 03:56:13;;;;;;;;;;;;;;;22.14;48.08;100876.25;103316;1295;61362;-83
2023/05/26 03:58:38;;;;;;;;;;;;;;;22.14;48.04;100877.89;103072;1289;62387;-84
2023/05/26 04:01:04;;;;;;;;;;;;;;;22.14;48.17;100883.06;103251;1292;61403;-84
2023/05/26 04:03:29;;;;;;;;;;;;;;;22.14;48.16;100879.33;103541;1291;61374;-83
2023/05/26 04:05:57;;;;;;;;;;;;;;;22.14;48.15;100881.68;103158;1289;61383;-84
2023/05/26 04:08:22;;;;;;;;;;;;;;;22.14;48.05;100883.80;103482;1289;74199;-84
2023/05/26 04:10:48;;;;;;;;;;;;;;;22.14;48.09;100883.48;103228;1290;61482;-84
2023/05/26 04:13:13;;;;;;;;;;;;;;;22.14;48.07;100885.27;103269;1289;61413;-83
2023/05/26 04:15:40;;;;;;;;;;;;;;;22.14;48.14;100886.35;103301;1294;61477;-83
2023/05/26 04:18:05;;;;;;;;;;;;;;;22.14;48.11;100890.06;103286;1293;61387;-83
2023/05/26 04:20:31;;;;;;;;;;;;;;;22.13;48.09;100891.04;103351;1289;61554;-83
2023/05/26 04:22:56;;;;;;;;;;;;;;;22.14;48.04;100887.96;103295;1289;61394;-83
2023/05/26 04:25:24;;;;;;;;;;;;;;;22.14;48.10;100883.83;103532;1291;62527;-83
2023/05/26 04:27:52;;;;;;;;;;;;;;;22.13;47.86;100882.97;103519;1289;72516;-84
2023/05/26 04:30:18;;;;;;;;;;;;;;;22.14;48.05;100876.13;103199;1288;75317;-82
2023/05/26 04:32:44;;;;;;;;;;;;;;;22.14;48.03;100875.73;103546;1290;62526;-83
2023/05/26 04:35:10;;;;;;;;;;;;;;;22.14;48.02;100877.73;103278;1289;61780;-84
2023/05/26 04:37:38;;;;;;;;;;;;;;;22.14;48.03;100882.74;103445;1288;61285;-84
2023/05/26 04:40:05;;;;;;;;;;;;;;;22.14;47.97;100880.06;103285;1294;61291;-83
2023/05/26 04:42:33;;;;;;;;;;;;;;;22.14;48.12;100873.62;103279;1289;61379;-84
2023/05/26 04:45:00;;;;;;;;;;;;;;;22.14;48.10;100871.83;103491;1289;62321;-84
2023/05/26 04:47:27;;;;;;;;;;;;;;;22.14;47.97;100869.26;103309;1294;73550;-83
2023/05/26 04:49:53;;;;;;;;;;;;;;;22.14;48.02;100866.56;103297;1288;75244;-84
2023/05/26 04:52:18;;;;;;;;;;;;;;;22.15;47.98;100867.09;103071;1292;61460;-84
2023/05/26 04:54:44;;;;;;;;;;;;;;;22.15;47.98;100862.80;103307;1294;61301;-84
2023/05/26 04:57:09;;;;;;;;;;;;;;;22.14;47.98;100869.64;103268;1289;62444;-83
2023/05/26 04:59:37;;;;;;;;;;;;;;;22.15;48.05;100875.14;103365;1293;62286;-84
2023/05/26 05:02:03;;;;;;;;;;;;;;;22.15;47.98;100878.71;103313;1289;75352;-84
2023/05/26 05:04:28;;;;;;;;;;;;;;;22.15;47.93;100882.52;103314;1289;61442;-83
2023/05/26 05:06:54;;;;;;;;;;;;;;;22.14;47.94;100884.31;103491;1289;61344;-83
2023/05/26 05:09:21;;;;;;;;;;;;;;;22.14;47.93;100885.95;103546;1290;61303;-83
2023/05/26 05:11:46;;;;;;;;;;;;;;;22.15;48.00;100888.02;103254;1290;61538;-83
2023/05/26 05:14:14;;;;;;;;;;;;;;;22.14;47.87;100891.46;103377;1293;61393;-84
2023/05/26 05:16:41;;;;;;;;;;;;;;;22.14;48.01;100894.02;103475;1289;61950;-83
2023/05/26 05:19:09;;;;;;;;;;;;;;;22.14;47.84;100889.55;103701;1286;61473;-82
2023/05/26 05:21:34;;;;;;;;;;;;;;;22.14;47.81;100893.85;103664;1286;61401;-83
2023/05/26 05:24:00;;;;;;;;;;;;;;;22.14;47.81;100888.61;103724;1290;61458;-83
2023/05/26 05:26:25;;;;;;;;;;;;;;;22.14;47.86;100892.20;103606;1286;62457;-82
2023/05/26 05:28:52;;;;;;;;;;;;;;;22.14;47.82;100892.21;103587;1287;61397;-82
2023/05/26 05:31:17;;;;;;;;;;;;;;;22.14;47.85;100897.77;103599;1286;62628;-84
2023/05/26 05:33:43;;;;;;;;;;;;;;;22.15;47.85;100902.17;103311;1286;61544;-84
2023/05/26 05:36:09;;;;;;;;;;;;;;;22.15;47.82;100898.95;103365;1287;61442;-83
2023/05/26 05:38:34;;;;;;;;;;;;;;;22.16;47.92;100901.76;103544;1286;61319;-83
2023/05/26 05:41:00;;;;;;;;;;;;;;;22.16;47.81;100905.70;103444;1286;61851;-83
2023/05/26 05:43:27;;;;;;;;;;;;;;;22.16;47.86;100909.12;103397;1291;61232;-83
2023/05/26 05:45:53;;;;;;;;;;;;;;;22.16;47.85;100911.80;103575;1288;61907;-83
2023/05/26 05:48:18;;;;;;;;;;;;;;;22.16;47.81;100908.38;103545;1286;61553;-83
2023/05/26 05:50:44;;;;;;;;;;;;;;;22.17;47.93;100913.19;103561;1292;61394;-82
2023/05/26 05:53:10;;;;;;;;;;;;;;;22.17;47.86;100909.94;103438;1287;61359;-84
2023/05/26 05:55:36;;;;;;;;;;;;;;;22.17;47.78;100913.16;103478;1286;62005;-83
2023/05/26 05:58:02;;;;;;;;;;;;;;;22.17;47.81;100916.73;103438;1292;61284;-83
2023/05/26 06:00:27;;;;;;;;;;;;;;;22.18;47.73;100918.49;103482;1286;62458;-84
2023/05/26 06:02:53;;;;;;;;;;;;;;;22.17;47.83;100919.77;103333;1292;61394;-83
2023/05/26 06:05:19;;;;;;;;;;;;;;;22.18;47.65;100915.63;103659;1291;61477;-83
2023/05/26 06:07:44;;;;;;;;;;;;;;;22.18;47.71;100917.17;103786;1286;72592;-83
2023/05/26 06:10:10;;;;;;;;;;;;;;;22.19;47.68;100919.46;103819;1286;61400;-83
2023/05/26 06:12:35;;;;;;;;;;;;;;;22.19;47.72;100915.17;103799;1289;61364;-83
2023/05/26 06:15:00;;;;;;;;;;;;;;;22.19;47.69;100914.23;103795;1286;61449;-83
2023/05/26 06:17:26;;;;;;;;;;;;;;;22.21;47.73;100920.55;103996;1286;61406;-82
2023/05/26 06:19:52;;;;;;;;;;;;;;;22.22;47.67;100925.70;103983;1286;61322;-83
2023/05/26 06:22:18;;;;;;;;;;;;;;;22.22;47.65;100929.58;103751;1292;61295;-83
2023/05/26 06:24:43;;;;;;;;;;;;;;;22.24;47.61;100929.14;103919;1286;61386;-83
2023/05/26 06:27:10;;;;;;;;;;;;;;;22.25;47.57;100930.14;103801;1289;61390;-83
2023/05/26 06:29:35;;;;;;;;;;;;;;;22.26;47.69;100932.05;103570;1286;61416;-83
2023/05/26 06:32:01;;;;;;;;;;;;;;;22.26;47.60;100933.95;103779;1289;61368;-83
2023/05/26 06:34:26;;;;;;;;;;;;;;;22.27;47.60;100932.10;103781;1288;62440;-83
2023/05/26 06:36:54;;;;;;;;;;;;;;;22.28;47.75;100933.30;103768;1286;61384;-84
2023/05/26 06:39:20;;;;;;;;;;;;;;;22.30;47.58;100930.53;103812;1292;62386;-83
2023/05/26 06:41:46;;;;;;;;;;;;;;;22.31;47.66;100932.43;103781;1286;61378;-84
2023/05/26 06:44:11;;;;;;;;;;;;;;;22.32;47.54;100933.10;103962;1286;62167;-83
2023/05/26 06:46:36;;;;;;;;;;;;;;;22.31;47.48;100930.55;103811;1289;63345;-82
2023/05/26 06:49:02;;;;;;;;;;;;;;;22.32;47.38;100928.00;103922;1286;61310;-83
2023/05/26 06:51:27;;;;;;;;;;;;;;;22.33;47.25;100931.89;104177;1286;61314;-83
2023/05/26 06:53:53;;;;;;;;;;;;;;;22.34;47.35;100932.71;103867;1286;61287;-82
2023/05/26 06:56:18;;;;;;;;;;;;;;;22.35;47.27;100940.55;103918;1286;61367;-82
2023/05/26 06:58:44;;;;;;;;;;;;;;;22.36;47.33;100940.69;103733;1286;61369;-82
2023/05/26 07:01:10;;;;;;;;;;;;;;;22.37;47.26;100942.71;104052;1288;62440;-82
2023/05/26 07:03:38;;;;;;;;;;;;;;;22.38;47.14;100938.52;103819;1292;61406;-82
2023/05/26 07:06:03;;;;;;;;;;;;;;;22.39;47.14;100945.48;103645;1292;73341;-82
2023/05/26 07:08:29;;;;;;;;;;;;;;;22.38;47.08;100945.14;103583;1284;610481;-82
2023/05/26 07:10:54;;;;;;;;;;;;;;;22.38;47.05;100943.71;104010;1285;62551;-82
2023/05/26 07:13:20;;;;;;;;;;;;;;;22.38;47.09;100944.43;103963;1286;61390;-82
2023/05/26 07:15:46;;;;;;;;;;;;;;;22.38;46.96;100945.33;103978;1283;61289;-82
2023/05/26 07:18:12;;;;;;;;;;;;;;;22.38;46.90;100948.55;103719;1286;61697;-82
2023/05/26 07:20:37;;;;;;;;;;;;;;;22.38;46.98;100944.81;104021;1286;61374;-83
2023/05/26 07:23:03;;;;;;;;;;;;;;;22.38;46.90;100942.51;104153;1285;61396;-82
2023/05/26 07:25:28;;;;;;;;;;;;;;;22.38;46.96;100943.02;103918;1286;61844;-83
2023/05/26 07:27:55;;;;;;;;;;;;;;;22.37;46.91;100942.02;103975;1289;61297;-83
2023/05/26 07:30:20;;;;;;;;;;;;;;;22.37;46.89;100942.35;103939;1285;61926;-84
2023/05/26 07:32:46;;;;;;;;;;;;;;;22.37;46.87;100941.33;103938;1291;61393;-83
2023/05/26 07:35:11;;;;;;;;;;;;;;;22.37;46.97;100944.33;104076;1286;61344;-83
2023/05/26 07:37:37;;;;;;;;;;;;;;;22.38;46.91;100945.19;103894;1290;61460;-81
2023/05/26 07:40:04;;;;;;;;;;;;;;;22.38;46.81;100943.20;103732;1286;62304;-81
2023/05/26 07:42:30;;;;;;;;;;;;;;;22.38;46.76;100943.55;103823;1286;61305;-82
2023/05/26 07:44:56;;;;;;;;;;;;;;;22.39;46.70;100944.05;103803;1286;62114;-83
2023/05/26 07:47:22;;;;;;;;;;;;;;;22.39;46.67;100947.25;103929;1286;61400;-82
2023/05/26 07:49:47;;;;;;;;;;;;;;;22.39;46.57;100947.40;103818;1286;61285;-82
2023/05/26 07:52:13;;;;;;;;;;;;;;;22.39;46.65;100947.98;103862;1292;61527;-82
2023/05/26 07:54:38;;;;;;;;;;;;;;;22.39;46.67;100947.45;103835;1286;62062;-83
2023/05/26 07:57:05;;;;;;;;;;;;;;;22.39;46.58;100950.15;103817;1286;61381;-82
2023/05/26 07:59:31;;;;;;;;;;;;;;;22.38;46.52;100948.36;103876;1286;61393;-82
2023/05/26 08:01:57;;;;;;;;;;;;;;;22.38;46.55;100948.92;103769;1287;61279;-83
2023/05/26 08:04:23;;;;;;;;;;;;;;;22.38;46.51;100949.46;103926;1286;61371;-83
2023/05/26 08:06:48;;;;;;;;;;;;;;;22.37;46.51;100950.58;103688;1288;61345;-83
2023/05/26 08:09:14;;;;;;;;;;;;;;;22.38;46.41;100952.55;103818;1286;61320;-83
2023/05/26 08:11:39;;;;;;;;;;;;;;;22.37;46.39;100948.81;103918;1286;61327;-83
2023/05/26 08:14:06;;;;;;;;;;;;;;;22.37;46.29;100950.95;103790;1292;61186;-83
2023/05/26 08:16:32;;;;;;;;;;;;;;;22.37;46.43;100952.23;104030;1287;62185;-83
2023/05/26 08:18:57;;;;;;;;;;;;;;;22.38;46.55;100949.50;103987;1286;61372;-83
2023/05/26 08:21:23;;;;;;;;;;;;;;;22.38;46.60;100948.95;103747;1286;62458;-83
2023/05/26 08:23:48;;;;;;;;;;;;;;;22.39;46.80;100951.05;103940;1286;61562;-83
2023/05/26 08:26:13;;;;;;;;;;;;;;;22.38;46.65;100947.86;104038;1289;61486;-83
2023/05/26 08:28:39;;;;;;;;;;;;;;;22.37;46.59;100951.15;103796;1286;61489;-83
2023/05/26 08:31:05;;;;;;;;;;;;;;;22.37;46.75;100951.50;103725;1290;61457;-83
2023/05/26 08:33:30;;;;;;;;;;;;;;;22.37;46.76;100954.36;103633;1286;61203;-83
2023/05/26 08:35:56;;;;;;;;;;;;;;;22.37;46.82;100961.02;103680;1286;61426;-84
2023/05/26 08:38:22;;;;;;;;;;;;;;;22.37;46.69;100959.05;103705;1286;61292;-83
2023/05/26 08:40:47;;;;;;;;;;;;;;;22.37;46.64;100955.30;103474;1287;74041;-83
2023/05/26 08:43:13;;;;;;;;;;;;;;;22.37;46.60;100964.64;103932;1292;61489;-83
2023/05/26 08:45:38;;;;;;;;;;;;;;;22.36;46.61;100959.29;103957;1286;61550;-81
2023/05/26 08:48:06;;;;;;;;;;;;;;;22.36;46.65;100962.71;104069;1288;61324;-81
2023/05/26 08:50:32;;;;;;;;;;;;;;;22.36;46.63;100963.21;104230;1291;61525;-81
2023/05/26 08:52:59;;;;;;;;;;;;;;;22.36;46.60;100962.33;103963;1289;61563;-82
2023/05/26 08:55:24;;;;;;;;;;;;;;;22.36;46.71;100963.73;104008;1285;61536;-82
2023/05/26 08:57:50;;;;;;;;;;;;;;;22.37;46.64;100964.79;104108;1285;61439;-81
2023/05/26 09:00:17;;;;;;;;;;;;;;;22.37;46.54;100961.73;103903;1286;61317;-82
2023/05/26 09:02:43;;;;;;;;;;;;;;;22.37;46.59;100967.30;103947;1286;74536;-81
2023/05/26 09:05:08;;;;;;;;;;;;;;;22.37;46.54;100959.03;103909;1287;61272;-82
2023/05/26 09:07:34;;;;;;;;;;;;;;;22.38;46.53;100950.56;103980;1285;61384;-82
2023/05/26 09:10:20;;;;;;;;;;;;;;;22.38;46.42;100951.80;103886;1286;61233;-82
2023/05/26 09:12:45;;;;;;;;;;;;;;;22.38;46.43;100945.14;103837;1286;75063;-81
2023/05/26 09:15:13;;;;;;;;;;;;;;;22.38;46.35;100948.89;103907;1286;61477;-82
2023/05/26 09:17:41;;;;;;;;;;;;;;;22.39;46.50;100948.48;103792;1285;61378;-83
2023/05/26 09:20:06;;;;;;;;;;;;;;;22.39;46.50;100945.06;103859;1286;73514;-83
2023/05/26 09:22:33;;;;;;;;;;;;;;;22.39;46.52;100944.69;104011;1284;61445;-82
2023/05/26 09:24:59;;;;;;;;;;;;;;;22.40;46.65;100943.08;103955;1286;61336;-82
2023/05/26 09:27:24;;;;;;;;;;;;;;;22.39;46.57;100944.20;103903;1288;61321;-82
2023/05/26 09:29:50;;;;;;;;;;;;;;;22.38;46.48;100938.30;103785;1286;61604;-82
2023/05/26 09:32:16;;;;;;;;;;;;;;;22.39;46.49;100935.73;104154;1285;61369;-82
2023/05/26 09:34:41;;;;;;;;;;;;;;;22.39;46.56;100936.46;103854;1285;62428;-82
2023/05/26 09:37:11;;;;;;;;;;;;;;;22.39;46.38;100934.46;103708;1286;61243;-83
2023/05/26 09:39:36;;;;;;;;;;;;;;;22.40;46.34;100939.66;103716;1286;62636;-83
2023/05/26 09:42:04;;;;;;;;;;;;;;;22.39;46.34;100940.92;103859;1286;61471;-82
2023/05/26 09:44:31;;;;;;;;;;;;;;;22.39;46.33;100940.92;104114;1286;74366;-82
2023/05/26 09:46:56;;;;;;;;;;;;;;;22.40;46.40;100939.11;103802;1286;61362;-82
2023/05/26 09:49:22;;;;;;;;;;;;;;;22.39;46.28;100939.50;104021;1286;61394;-81
2023/05/26 09:51:50;;;;;;;;;;;;;;;22.39;46.30;100938.42;103956;1287;61473;-82
2023/05/26 09:54:16;;;;;;;;;;;;;;;22.39;46.22;100940.58;103767;1286;62334;-82
2023/05/26 09:56:52;;;;;;;;;;;;;;;22.39;46.23;100948.11;103751;1286;61768;-81
2023/05/26 09:59:17;;;;;;;;;;;;;;;22.39;46.25;100942.21;103699;1286;61294;-82
2023/05/26 10:01:43;;;;;;;;;;;;;;;22.39;46.29;100940.45;103741;1286;61464;-82
2023/05/26 10:04:08;;;;;;;;;;;;;;;22.38;46.29;100934.02;103814;1286;62595;-81
2023/05/26 10:06:35;;;;;;;;;;;;;;;22.38;46.21;100931.85;103684;1286;61459;-82
2023/05/26 10:09:01;;;;;;;;;;;;;;;22.38;46.16;100930.28;103656;1286;61263;-83
2023/05/26 10:11:28;;;;;;;;;;;;;;;22.38;46.16;100921.85;103823;1285;61381;-82
2023/05/26 10:13:54;;;;;;;;;;;;;;;22.38;46.14;100921.85;103817;1285;62231;-82
2023/05/26 10:16:20;;;;;;;;;;;;;;;22.38;46.10;100917.73;103694;1286;61272;-82
2023/05/26 10:18:46;;;;;;;;;;;;;;;22.38;46.08;100913.08;103877;1290;62677;-82
2023/05/26 10:21:11;;;;;;;;;;;;;;;22.37;46.09;100909.89;103780;1287;61393;-82
2023/05/26 10:23:42;;;;;;;;;;;;;;;22.37;45.96;100904.88;103886;1291;62616;-82
2023/05/26 10:26:11;;;;;;;;;;;;;;;22.38;46.08;100902.52;104046;1288;75435;-82
2023/05/26 10:28:38;;;;;;;;;;;;;;;22.37;46.11;100898.93;104166;1286;61304;-82
2023/05/26 10:31:04;;;;;;;;;;;;;;;22.38;46.14;100893.70;103774;1286;61314;-82
2023/05/26 10:33:42;;;;;;;;;;;;;;;22.38;46.08;100891.38;103968;1283;61388;-82
2023/05/26 10:36:17;;;;;;;;;;;;;;;22.38;46.10;100885.65;103978;1286;75273;-83
2023/05/26 10:38:43;;;;;;;;;;;;;;;22.38;46.10;100881.71;103833;1286;62396;-83
2023/05/26 10:41:12;;;;;;;;;;;;;;;22.38;46.12;100874.88;103777;1286;61397;-83
2023/05/26 10:43:55;;;;;;;;;;;;;;;22.37;46.02;100872.21;103684;1286;73273;-83
2023/05/26 10:46:20;;;;;;;;;;;;;;;22.38;46.09;100866.13;103935;1286;61434;-83
2023/05/26 10:48:56;;;;;;;;;;;;;;;22.38;46.11;100863.77;103954;1286;61403;-83
2023/05/26 10:51:34;;;;;;;;;;;;;;;22.38;46.15;100857.46;103989;1286;61384;-83
2023/05/26 10:53:59;;;;;;;;;;;;;;;22.38;46.19;100856.02;104005;1286;73455;-82
2023/05/26 10:56:35;;;;;;;;;;;;;;;22.38;46.06;100850.28;103958;1290;61327;-82
2023/05/26 10:59:02;;;;;;;;;;;;;;;22.39;46.18;100845.05;103770;1286;61291;-81
2023/05/26 11:01:28;;;;;;;;;;;;;;;22.39;46.15;100846.80;103670;1286;62375;-82
2023/05/26 11:03:57;;;;;;;;;;;;;;;22.39;46.15;100839.84;103835;1286;61345;-82
2023/05/26 11:06:33;;;;;;;;;;;;;;;22.39;46.17;100837.84;103817;1286;74329;-81
2023/05/26 11:08:59;;;;;;;;;;;;;;;22.39;46.15;100831.60;103728;1286;62505;-82
2023/05/26 11:11:28;;;;;;;;;;;;;;;22.39;46.14;100830.13;103612;1285;61416;-82
2023/05/26 11:14:04;;;;;;;;;;;;;;;22.40;46.13;100830.45;103630;1286;73651;-82
2023/05/26 11:16:32;;;;;;;;;;;;;;;22.39;46.20;100817.55;103666;1292;75077;-83
2023/05/26 11:18:58;;;;;;;;;;;;;;;22.39;46.14;100813.09;103702;1286;62220;-82
2023/05/26 11:21:24;;;;;;;;;;;;;;;22.39;46.19;100812.59;103629;1286;61328;-82
2023/05/26 11:23:56;;;;;;;;;;;;;;;22.39;46.07;100810.25;103717;1285;61394;-83
2023/05/26 11:26:22;;;;;;;;;;;;;;;22.39;46.14;100810.08;103695;1286;75156;-82
2023/05/26 11:28:48;;;;;;;;;;;;;;;22.39;46.14;100811.16;103614;1290;61386;-82
2023/05/26 11:31:15;;;;;;;;;;;;;;;22.38;46.10;100807.42;103738;1286;61256;-82
2023/05/26 11:33:40;;;;;;;;;;;;;;;22.38;46.23;100806.35;103641;1287;61210;-82
2023/05/26 11:36:08;;;;;;;;;;;;;;;22.39;46.09;100797.91;103869;1287;62426;-83
2023/05/26 11:38:35;;;;;;;;;;;;;;;22.39;46.12;100797.88;103683;1286;61838;-83
2023/05/26 11:41:02;;;;;;;;;;;;;;;22.39;46.11;100794.45;104242;1291;61406;-83
2023/05/26 11:43:28;;;;;;;;;;;;;;;22.39;46.11;100787.64;103524;1291;61297;-82
2023/05/26 11:45:53;;;;;;;;;;;;;;;22.40;46.17;100782.40;103571;1290;61726;-82
2023/05/26 11:48:19;;;;;;;;;;;;;;;22.40;46.21;100777.02;103927;1286;61326;-83
2023/05/26 11:50:44;;;;;;;;;;;;;;;22.40;46.20;100769.45;103625;1286;61396;-83
2023/05/26 11:53:10;;;;;;;;;;;;;;;22.40;46.14;100760.67;103662;1291;61377;-82
2023/05/26 11:55:35;;;;;;;;;;;;;;;22.41;46.12;100760.45;103835;1289;61256;-83
2023/05/26 11:58:01;;;;;;;;;;;;;;;22.40;46.13;100755.28;103626;1287;62528;-83
2023/05/26 12:00:27;;;;;;;;;;;;;;;22.41;46.11;100757.02;103690;1286;61355;-82
2023/05/26 12:02:52;;;;;;;;;;;;;;;22.41;46.04;100754.16;103756;1286;61378;-83
2023/05/26 12:05:23;;;;;;;;;;;;;;;22.41;46.02;100748.75;103757;1289;61301;-84
2023/05/26 12:08:04;;;;;;;;;;;;;;;22.41;46.10;100749.83;103522;1289;74360;-83
2023/05/26 12:10:30;;;;;;;;;;;;;;;22.41;46.10;100751.77;103871;1289;62044;-82
2023/05/26 12:12:56;;;;;;;;;;;;;;;22.41;46.12;100753.02;103630;1286;61313;-83
2023/05/26 12:15:22;;;;;;;;;;;;;;;22.42;46.19;100749.19;103645;1287;61461;-83
2023/05/26 12:17:48;;;;;;;;;;;;;;;22.42;46.10;100746.50;103662;1291;61474;-82
2023/05/26 12:20:14;;;;;;;;;;;;;;;22.43;46.16;100737.15;103929;1286;61327;-83
2023/05/26 12:22:39;;;;;;;;;;;;;;;22.43;46.10;100730.47;103660;1291;61284;-83